Terminal Aerodrome Forecast
Issued by NWS

Home | Current Version | Previous Version | Text Only | Print | Product List | Glossary On
Versions: 1 2 3 4 5 6 7 8 9 10 11 12 13 14 15 16 17 18 19 20 21 22 23 24
000
FTUS43 KAPX 062335
TAFTVC
TAF
KTVC 062335Z 0700/0724 21010G21KT P6SM SCT025 OVC070
     FM070500 22008KT 5SM -SHSN BKN025
     FM070900 22010KT P6SM SCT025 SCT150
     FM071200 23008KT 3SM -SN OVC022
     FM071900 28014KT 6SM -SHSN OVC035=

USA.gov is the U.S. government's official web portal to all federal, state and local government web resources and services.